Time;durP1;ratioP1;P1;durP2;ratioP2;P2;SDS_P1;SDS_P2;PMS_P1;PMS_P2;Temp;Humidity;BMP_temperature;BMP_pressure;BME280_temperature;BME280_humidity;BME280_pressure;Samples;Min_cycle;Max_cycle;Signal;HPM_P1;HPM_P2
2023/08/28 00:04:33;;;;;;;70.45;67.30;;;;;;;20.31;100.00;100576.88;4979231;28;20051;-94
2023/08/28 00:41:00;;;;;;;;;;;;;;;19.86;100.00;100587.47;4866318;29;20066;-94
2023/08/28 00:56:25;;;;;;;58.90;56.13;;;;;;;19.71;100.00;100583.97;5014942;28;20435;-94
2023/08/28 00:59:16;;;;;;;48.28;45.97;;;;;;;19.63;100.00;100587.97;4957634;28;20062;-94
2023/08/28 01:09:12;;;;;;;;;;;;;;;;;;;;;
2023/08/28 01:12:41;;;;;;;47.50;45.10;;;;;;;19.03;100.00;100570.66;4921450;29;20055;-94
2023/08/28 01:16:02;;;;;;;43.40;41.20;;;;;;;19.15;100.00;100569.34;4845456;29;20052;-95
2023/08/28 01:19:27;;;;;;;50.90;48.60;;;;;;;19.07;100.00;100579.84;4812151;29;20140;-94
2023/08/28 01:22:51;;;;;;;55.10;52.40;;;;;;;18.58;100.00;100577.47;4852548;29;20634;-94
2023/08/28 01:26:16;;;;;;;;;;;;;;;;;;;;;
2023/08/28 01:32:40;;;;;;;;;;;;;;;18.22;100.00;100580.78;4933496;28;20524;-94
2023/08/28 01:55:13;;;;;;;44.65;42.35;;;;;;;17.93;100.00;100571.44;4989586;28;20141;-94
2023/08/28 02:05:14;;;;;;;53.05;50.55;;;;;;;18.23;100.00;100560.88;4965496;28;20142;-94
2023/08/28 02:08:22;;;;;;;54.17;51.45;;;;;;;17.89;100.00;100546.19;4981676;28;20082;-94
2023/08/28 02:18:46;;;;;;;55.33;52.72;;;;;;;17.55;100.00;100541.88;5017335;28;20052;-94
2023/08/28 02:25:23;;;;;;;108.75;104.15;;;;;;;17.96;100.00;100538.69;5024820;28;20053;-94
2023/08/28 02:42:09;;;;;;;61.72;59.13;;;;;;;16.56;100.00;100545.66;4938907;28;20051;-94
2023/08/28 02:54:47;;;;;;;;;;;;;;;;;;;;;
2023/08/28 03:14:11;;;;;;;69.65;66.35;;;;;;;17.36;100.00;100528.00;4821136;29;20089;-93
2023/08/28 03:17:06;;;;;;;68.00;64.80;;;;;;;17.91;100.00;100539.47;4791705;29;20135;-93
2023/08/28 03:43:55;;;;;;;23.55;22.25;;;;;;;17.59;100.00;100567.13;4758447;29;20215;-94
2023/08/28 03:47:00;;;;;;;22.05;20.85;;;;;;;17.88;100.00;100574.09;4886974;29;20139;-94
2023/08/28 03:53:27;;;;;;;;;;;;;;;;;;;;;
2023/08/28 04:29:32;;;;;;;20.58;19.38;;;;;;;19.01;100.00;100576.31;4846961;29;20143;-94
2023/08/28 04:53:01;;;;;;;21.27;19.98;;;;;;;19.98;100.00;100581.78;4877758;29;20532;-93
2023/08/28 05:06:30;;;;;;;;;;;;;;;;;;;;;
2023/08/28 05:12:59;;;;;;;21.73;20.27;;;;;;;20.97;100.00;100583.94;4970461;28;20065;-95
2023/08/28 05:16:29;;;;;;;21.90;20.50;;;;;;;21.14;100.00;100567.34;5022315;28;20491;-94
2023/08/28 05:26:29;;;;;;;21.95;20.55;;;;;;;21.85;100.00;100566.84;4972168;28;20065;-95
2023/08/28 05:52:53;;;;;;;21.90;20.60;;;;;;;23.36;100.00;100555.53;5011030;28;20053;-95
2023/08/28 05:56:11;;;;;;;23.98;22.48;;;;;;;23.56;100.00;100565.22;5024640;28;20049;-93
2023/08/28 05:59:40;;;;;;;23.40;22.10;;;;;;;23.39;100.00;100557.66;5022763;28;20049;-94
2023/08/28 06:10:21;;;;;;;23.23;21.83;;;;;;;24.59;100.00;100543.25;4912140;29;20056;-94
2023/08/28 06:13:11;;;;;;;22.40;21.05;;;;;;;24.88;100.00;100544.84;4902763;29;20056;-94
2023/08/28 06:36:19;;;;;;;19.50;18.00;;;;;;;28.29;100.00;100552.38;4944897;29;20138;-95
2023/08/28 06:39:27;;;;;;;20.67;19.23;;;;;;;28.04;100.00;100551.34;4933797;29;20134;-96
2023/08/28 06:42:45;;;;;;;20.13;18.73;;;;;;;27.12;100.00;100542.69;4944940;29;20062;-93
2023/08/28 07:09:58;;;;;;;;;;;;;;;;;;;;;
2023/08/28 07:43:22;;;;;;;27.23;25.52;;;;;;;31.07;63.11;100515.75;4816749;29;20540;-94
2023/08/28 07:59:39;;;;;;;27.98;26.23;;;;;;;31.80;65.72;100506.34;4853441;29;20085;-94
2023/08/28 08:09:36;;;;;;;27.52;25.83;;;;;;;31.89;57.74;100506.97;4734934;29;20063;-95
2023/08/28 08:22:42;;;;;;;23.63;21.90;;;;;;;32.22;51.24;100488.47;4798360;29;20069;-94
2023/08/28 08:44:22;;;;;;;;;;;;;;;;;;;;;
2023/08/28 08:51:04;;;;;;;;;;;;;;;;;;;;;
2023/08/28 09:14:43;;;;;;;;;;;;;;;;;;;;;
2023/08/28 09:18:17;;;;;;;35.65;33.75;;;;;;;35.06;42.32;100424.78;4922200;29;20533;-93
2023/08/28 09:31:14;;;;;;;27.40;25.60;;;;;;;34.43;45.89;100423.69;4794833;29;20062;-91
2023/08/28 09:33:45;;;;;;;30.08;28.17;;;;;;;34.83;55.83;100426.91;4855680;29;20059;-92
2023/08/28 10:02:44;;;;;;;22.58;21.08;;;;;;;35.85;45.51;100397.03;4764080;29;20059;-93
2023/08/28 10:05:12;;;;;;;23.83;22.33;;;;;;;35.32;41.44;100385.22;4852442;29;20063;-94
2023/08/28 10:07:40;;;;;;;24.25;22.65;;;;;;;35.07;42.40;100393.28;4863825;29;20053;-93
2023/08/28 10:10:12;;;;;;;24.00;22.35;;;;;;;36.23;35.31;100385.41;4969153;28;20056;-93
2023/08/28 10:12:41;;;;;;;23.08;21.48;;;;;;;36.20;35.96;100382.66;5021034;28;20055;-93
2023/08/28 10:15:26;;;;;;;25.35;23.85;;;;;;;35.91;37.52;100398.25;5020453;28;20500;-93
2023/08/28 10:18:08;;;;;;;23.92;22.42;;;;;;;36.04;36.33;100387.69;5027899;28;20484;-94
2023/08/28 10:20:35;;;;;;;22.52;21.02;;;;;;;35.68;45.00;100393.00;5026997;28;20111;-93
2023/08/28 10:26:25;;;;;;;26.65;25.05;;;;;;;36.30;37.11;100370.81;5020140;28;20058;-93
2023/08/28 10:32:54;;;;;;;22.30;20.90;;;;;;;35.53;42.55;100365.25;4916372;28;20302;-93
2023/08/28 11:05:39;;;;;;;31.08;29.08;;;;;;;37.24;33.30;100339.41;5025718;28;20083;-92
2023/08/28 11:08:08;;;;;;;32.92;30.83;;;;;;;37.64;32.89;100331.81;5027375;28;20522;-94
2023/08/28 11:10:36;;;;;;;32.22;30.15;;;;;;;38.31;31.16;100323.66;5024504;28;20053;-93
2023/08/28 11:13:05;;;;;;;35.95;33.75;;;;;;;37.90;30.27;100327.78;5023846;28;20064;-94
2023/08/28 11:37:07;;;;;;;26.58;24.77;;;;;;;36.55;44.85;100310.09;4937883;28;20531;-94
2023/08/28 11:47:10;;;;;;;29.08;27.17;;;;;;;38.27;29.83;100307.84;4985086;28;20053;-78
2023/08/28 11:49:38;;;;;;;25.15;23.45;;;;;;;38.03;29.11;100297.66;4992363;28;20050;-76
2023/08/28 11:52:06;;;;;;;28.58;26.88;;;;;;;38.54;28.09;100296.22;4989159;28;20047;-76
2023/08/28 11:54:39;;;;;;;32.47;30.60;;;;;;;38.23;31.96;100293.22;4980676;28;20126;-78
2023/08/28 11:57:08;;;;;;;28.83;27.13;;;;;;;38.09;35.55;100290.50;5002618;23;20053;-82
2023/08/28 11:59:35;;;;;;;29.83;28.02;;;;;;;38.73;30.97;100292.09;4979646;28;20061;-82
2023/08/28 12:02:03;;;;;;;25.55;24.15;;;;;;;36.31;41.20;100289.50;4980089;28;20089;-81
2023/08/28 12:04:36;;;;;;;32.60;30.80;;;;;;;38.54;30.01;100292.66;4981408;28;20438;-79
2023/08/28 12:07:05;;;;;;;33.13;31.23;;;;;;;38.19;29.92;100281.38;4981314;28;20055;-82
2023/08/28 12:09:33;;;;;;;31.98;30.17;;;;;;;38.70;29.48;100276.28;4981511;28;20050;-81
2023/08/28 12:12:01;;;;;;;24.38;22.88;;;;;;;38.65;29.23;100282.28;4983266;28;20050;-80
2023/08/28 12:14:29;;;;;;;28.35;26.67;;;;;;;38.39;30.41;100272.53;4979821;28;20085;-80
2023/08/28 12:17:00;;;;;;;30.15;28.38;;;;;;;37.93;31.74;100270.81;4982029;28;20060;-81
2023/08/28 12:19:27;;;;;;;29.00;27.30;;;;;;;37.70;31.64;100268.50;4982064;28;20050;-80
2023/08/28 12:22:05;;;;;;;27.52;26.00;;;;;;;38.22;29.57;100254.81;4981004;28;20059;-79
2023/08/28 12:24:32;;;;;;;26.13;24.60;;;;;;;37.71;32.84;100248.72;4981771;28;20488;-80
2023/08/28 12:26:59;;;;;;;31.48;29.77;;;;;;;37.47;33.06;100252.38;4982914;28;20050;-81
2023/08/28 12:29:26;;;;;;;33.63;31.73;;;;;;;38.61;30.80;100251.78;4980627;28;20077;-79
2023/08/28 12:31:53;;;;;;;31.55;29.85;;;;;;;38.32;29.61;100258.72;4981276;28;20046;-79
2023/08/28 12:34:20;;;;;;;24.80;23.30;;;;;;;37.95;29.88;100258.13;4980711;28;20062;-81
2023/08/28 12:36:47;;;;;;;25.65;24.05;;;;;;;37.91;31.51;100251.00;4979593;28;20496;-79
2023/08/28 12:39:17;;;;;;;27.75;26.15;;;;;;;39.37;27.86;100243.59;4979862;28;20046;-80
2023/08/28 12:41:50;;;;;;;30.35;28.65;;;;;;;39.49;27.60;100243.03;4981042;28;20081;-81
2023/08/28 12:44:17;;;;;;;28.25;26.55;;;;;;;39.42;26.91;100243.09;4979358;28;20050;-81
2023/08/28 12:46:44;;;;;;;25.92;24.33;;;;;;;38.90;28.67;100246.78;4979118;28;20484;-80
2023/08/28 12:49:14;;;;;;;23.85;22.35;;;;;;;38.08;29.92;100241.81;4980461;28;20058;-80
2023/08/28 12:51:41;;;;;;;28.88;27.17;;;;;;;39.35;28.06;100235.66;4980938;28;20046;-79
2023/08/28 12:54:08;;;;;;;29.73;28.02;;;;;;;38.78;28.96;100233.41;4980880;28;20049;-80
2023/08/28 12:56:37;;;;;;;27.67;26.08;;;;;;;39.23;28.61;100221.50;4979233;28;20054;-80
2023/08/28 12:59:05;;;;;;;25.25;23.65;;;;;;;39.53;26.93;100221.56;4980242;28;20051;-80
2023/08/28 13:01:32;;;;;;;28.10;26.38;;;;;;;39.23;26.89;100218.72;4979861;28;20042;-80
2023/08/28 13:03:59;;;;;;;29.13;27.35;;;;;;;38.69;28.10;100217.22;4980243;28;20536;-79
2023/08/28 13:06:26;;;;;;;27.98;26.27;;;;;;;39.39;27.58;100214.16;4981986;28;20057;-80
2023/08/28 13:08:53;;;;;;;29.40;27.67;;;;;;;39.39;27.94;100213.38;4980262;28;20138;-79
2023/08/28 13:11:20;;;;;;;26.73;25.02;;;;;;;38.29;34.31;100195.75;4979445;28;20054;-81
2023/08/28 13:13:48;;;;;;;27.27;25.58;;;;;;;39.21;27.08;100204.44;4977460;28;20046;-80
2023/08/28 13:16:16;;;;;;;31.27;29.48;;;;;;;38.58;27.37;100202.69;4979324;28;20047;-81
2023/08/28 13:18:43;;;;;;;31.65;29.85;;;;;;;38.48;28.17;100203.53;4979208;28;20046;-78
2023/08/28 13:21:10;;;;;;;30.13;28.33;;;;;;;38.32;28.14;100195.72;4988037;28;20050;-79
2023/08/28 13:23:37;;;;;;;29.52;27.83;;;;;;;39.06;27.49;100198.25;4990832;28;20100;-81
2023/08/28 13:26:04;;;;;;;31.13;29.33;;;;;;;39.01;27.98;100195.97;4987571;28;20510;-81
2023/08/28 13:28:31;;;;;;;31.27;29.48;;;;;;;38.80;28.22;100183.06;4991450;28;20463;-80
2023/08/28 13:30:59;;;;;;;31.63;29.73;;;;;;;39.02;27.81;100184.44;4987057;28;20054;-80
2023/08/28 13:33:26;;;;;;;34.88;32.88;;;;;;;38.01;29.73;100192.00;4991947;28;20055;-80
2023/08/28 13:35:53;;;;;;;37.70;35.60;;;;;;;38.47;29.55;100183.34;4991598;28;20431;-80
2023/08/28 13:38:21;;;;;;;28.92;27.15;;;;;;;38.47;29.43;100182.56;4990754;28;20043;-80
2023/08/28 13:40:48;;;;;;;31.25;29.35;;;;;;;38.77;28.96;100175.56;4991022;28;20050;-80
2023/08/28 13:43:15;;;;;;;32.30;30.40;;;;;;;38.66;29.19;100175.66;4990732;28;20050;-81
2023/08/28 13:45:42;;;;;;;31.73;29.92;;;;;;;38.94;28.71;100169.03;4983685;28;20496;-80
2023/08/28 13:48:10;;;;;;;31.40;29.60;;;;;;;38.59;29.06;100170.19;4990024;28;20490;-80
2023/08/28 13:50:39;;;;;;;31.48;29.67;;;;;;;38.33;29.90;100163.22;4990055;28;20076;-80
2023/08/28 13:53:07;;;;;;;28.90;27.05;;;;;;;38.70;28.29;100165.28;4990574;28;20050;-80
2023/08/28 13:55:34;;;;;;;32.63;30.67;;;;;;;38.46;29.70;100162.38;4989280;28;20089;-80
2023/08/28 13:58:02;;;;;;;27.38;25.67;;;;;;;38.52;30.07;100159.13;4990153;28;20047;-81
2023/08/28 14:00:29;;;;;;;27.95;26.15;;;;;;;38.74;30.26;100163.28;4983008;28;20050;-81
2023/08/28 14:02:56;;;;;;;30.83;28.92;;;;;;;37.64;30.78;100154.56;4990553;28;20061;-79
2023/08/28 14:05:24;;;;;;;36.42;34.33;;;;;;;37.77;31.87;100149.34;4990924;28;20116;-79
2023/08/28 14:07:51;;;;;;;35.25;33.17;;;;;;;38.05;31.40;100148.41;4990407;28;20057;-79
2023/08/28 14:10:19;;;;;;;31.05;29.15;;;;;;;37.77;32.04;100152.13;4989835;28;20077;-80
2023/08/28 14:12:48;;;;;;;29.52;27.73;;;;;;;37.59;32.66;100141.94;4990568;28;20042;-81
2023/08/28 14:15:15;;;;;;;26.08;24.38;;;;;;;37.53;32.46;100146.31;4989929;28;20046;-80
2023/08/28 14:17:42;;;;;;;30.27;28.50;;;;;;;37.96;32.05;100146.06;4989530;28;20056;-81
2023/08/28 14:20:11;;;;;;;33.83;31.98;;;;;;;37.79;30.70;100149.72;4991086;28;20056;-80
2023/08/28 14:22:39;;;;;;;24.45;22.95;;;;;;;38.08;30.86;100138.47;4988524;28;20077;-76
2023/08/28 14:25:07;;;;;;;29.10;27.40;;;;;;;38.24;30.69;100145.06;4987319;28;20524;-80
2023/08/28 14:27:33;;;;;;;37.55;35.55;;;;;;;37.88;30.26;100149.28;4989171;28;20059;-81
2023/08/28 14:30:01;;;;;;;38.40;36.30;;;;;;;37.50;30.74;100144.34;4989764;28;20133;-76
2023/08/28 14:32:28;;;;;;;39.65;37.35;;;;;;;37.64;30.23;100145.47;4989121;28;20085;-81
2023/08/28 14:34:55;;;;;;;36.22;34.17;;;;;;;37.71;30.38;100135.13;4990443;28;20092;-81
2023/08/28 14:37:22;;;;;;;35.10;33.00;;;;;;;37.76;29.72;100137.47;4983170;28;20677;-82
2023/08/28 14:39:52;;;;;;;35.55;33.35;;;;;;;37.85;29.83;100125.94;4983034;28;20043;-81
2023/08/28 14:42:19;;;;;;;39.85;37.35;;;;;;;37.73;30.01;100123.63;4989901;28;20072;-76
2023/08/28 14:44:46;;;;;;;39.00;36.55;;;;;;;37.88;30.46;100127.09;4989621;28;20047;-80
2023/08/28 14:47:13;;;;;;;33.28;31.10;;;;;;;37.71;30.84;100121.28;4989253;28;21479;-83
2023/08/28 14:49:40;;;;;;;31.45;29.35;;;;;;;37.56;31.47;100126.13;4989448;28;20443;-79
2023/08/28 14:52:07;;;;;;;35.85;33.55;;;;;;;37.49;31.75;100128.94;4989450;28;20475;-80
2023/08/28 14:54:34;;;;;;;33.30;31.20;;;;;;;37.08;32.87;100125.91;4989186;28;20423;-80
2023/08/28 14:57:03;;;;;;;36.17;33.85;;;;;;;37.09;33.69;100119.97;4987921;28;20081;-79
2023/08/28 14:59:36;;;;;;;37.10;34.75;;;;;;;36.92;33.64;100137.41;4990720;28;20401;-79
2023/08/28 15:02:05;;;;;;;34.60;32.40;;;;;;;37.18;33.43;100119.53;4990638;28;20400;-79
2023/08/28 15:04:34;;;;;;;31.63;29.60;;;;;;;36.89;33.77;100125.16;4993011;28;20057;-80
2023/08/28 15:07:00;;;;;;;30.17;28.17;;;;;;;36.94;33.54;100132.25;4992701;28;20061;-75
2023/08/28 15:09:30;;;;;;;29.92;28.02;;;;;;;36.89;34.18;100122.38;4993228;28;20427;-76
2023/08/28 15:11:59;;;;;;;29.00;27.20;;;;;;;37.08;34.34;100121.16;4991246;28;20050;-75
2023/08/28 15:14:27;;;;;;;29.42;27.63;;;;;;;36.88;34.04;100129.09;4990999;28;20086;-76
2023/08/28 15:16:54;;;;;;;29.70;27.80;;;;;;;36.68;35.27;100125.22;4992213;28;20047;-76
2023/08/28 15:19:22;;;;;;;31.02;29.10;;;;;;;36.34;34.84;100122.03;4992549;28;20050;-75
2023/08/28 15:21:49;;;;;;;29.95;27.95;;;;;;;36.46;35.11;100121.63;4992713;28;20046;-75
2023/08/28 15:24:16;;;;;;;31.17;29.17;;;;;;;36.45;34.68;100120.06;4993777;28;20058;-75
2023/08/28 15:26:43;;;;;;;33.08;30.98;;;;;;;36.09;36.37;100111.00;4992581;28;20057;-75
2023/08/28 15:29:10;;;;;;;28.13;26.33;;;;;;;36.16;35.23;100111.78;4992727;28;20457;-75
2023/08/28 15:31:38;;;;;;;29.08;27.08;;;;;;;36.25;35.04;100105.84;4992279;28;20046;-80
2023/08/28 15:34:05;;;;;;;32.20;30.10;;;;;;;36.06;35.17;100114.53;4993355;28;20118;-79
2023/08/28 15:36:32;;;;;;;33.33;31.23;;;;;;;35.92;35.13;100121.63;4993037;28;20046;-79
2023/08/28 15:39:00;;;;;;;33.17;31.08;;;;;;;35.76;36.39;100115.66;4993143;28;20046;-78
2023/08/28 15:41:27;;;;;;;33.25;31.20;;;;;;;35.66;35.83;100116.44;4992897;28;20056;-79
2023/08/28 15:43:54;;;;;;;34.28;32.22;;;;;;;35.69;35.98;100126.69;4993123;28;20050;-80
2023/08/28 15:46:21;;;;;;;34.30;32.20;;;;;;;35.63;36.33;100128.25;4992774;28;20125;-81
2023/08/28 15:48:50;;;;;;;30.13;28.30;;;;;;;35.39;36.96;100124.22;4992768;28;20631;-79
2023/08/28 15:51:17;;;;;;;34.80;32.78;;;;;;;35.33;37.34;100123.78;4988360;28;20134;-81
2023/08/28 15:53:44;;;;;;;31.40;29.50;;;;;;;35.19;37.11;100113.50;4992440;28;20049;-80
2023/08/28 15:56:11;;;;;;;32.55;30.55;;;;;;;35.15;37.15;100133.97;4992659;28;20046;-80
2023/08/28 15:58:38;;;;;;;31.95;30.05;;;;;;;35.07;37.65;100128.41;4992175;28;20048;-81
2023/08/28 16:01:04;;;;;;;31.55;29.70;;;;;;;34.94;37.46;100124.34;4992338;28;20042;-80
2023/08/28 16:03:31;;;;;;;33.30;31.40;;;;;;;34.85;37.35;100132.97;4992032;28;20054;-80
2023/08/28 16:06:03;;;;;;;32.58;30.75;;;;;;;34.79;37.31;100125.44;4992616;28;20519;-79
2023/08/28 16:08:30;;;;;;;32.03;30.23;;;;;;;34.61;37.98;100137.16;4988068;28;20572;-75
2023/08/28 16:10:57;;;;;;;26.15;24.55;;;;;;;34.30;43.82;100130.19;4991779;28;20051;-76
2023/08/28 16:13:24;;;;;;;26.75;25.15;;;;;;;34.25;39.15;100130.53;4991708;28;20495;-75
2023/08/28 16:15:51;;;;;;;25.60;24.00;;;;;;;34.10;39.81;100132.41;4991842;28;20053;-76
2023/08/28 16:18:18;;;;;;;24.88;23.27;;;;;;;34.01;39.99;100120.84;4991876;28;20054;-75
2023/08/28 16:20:46;;;;;;;23.92;22.35;;;;;;;33.90;41.14;100122.72;4991689;28;20487;-76
2023/08/28 16:23:15;;;;;;;24.77;23.27;;;;;;;33.79;41.91;100128.13;4991553;28;20046;-76
2023/08/28 16:25:42;;;;;;;27.48;25.88;;;;;;;33.69;43.29;100132.34;4991596;28;20117;-76
2023/08/28 16:28:10;;;;;;;26.50;24.90;;;;;;;33.65;43.83;100134.28;4991697;28;20117;-75
2023/08/28 16:30:38;;;;;;;27.90;26.23;;;;;;;33.51;45.21;100132.13;4990494;28;20423;-76
2023/08/28 16:33:07;;;;;;;27.60;25.90;;;;;;;33.45;45.67;100127.31;4991993;28;20439;-76
2023/08/28 16:35:34;;;;;;;30.58;28.88;;;;;;;33.33;46.91;100122.84;4988085;28;20125;-75
2023/08/28 16:38:01;;;;;;;27.85;26.15;;;;;;;33.26;48.49;100128.28;4991558;28;20409;-75
2023/08/28 16:40:29;;;;;;;26.75;25.15;;;;;;;33.12;49.93;100131.63;4991044;28;20049;-76
2023/08/28 16:42:56;;;;;;;25.83;24.13;;;;;;;33.00;50.71;100132.63;4992672;28;20065;-75
2023/08/28 16:45:23;;;;;;;27.08;25.38;;;;;;;32.87;52.28;100134.00;4990970;28;20046;-75
2023/08/28 16:47:53;;;;;;;27.80;26.10;;;;;;;32.78;52.75;100141.72;4991435;28;20112;-76
2023/08/28 16:50:20;;;;;;;26.92;25.23;;;;;;;32.62;55.29;100136.41;4991234;28;20134;-76
2023/08/28 16:52:46;;;;;;;26.40;24.70;;;;;;;32.61;56.54;100138.31;4991169;28;20125;-76
2023/08/28 16:55:13;;;;;;;29.45;27.65;;;;;;;32.39;58.14;100139.91;4991907;28;20057;-75
2023/08/28 16:57:41;;;;;;;31.02;29.20;;;;;;;32.34;59.40;100147.66;4995405;28;20516;-76
2023/08/28 17:00:09;;;;;;;31.15;29.25;;;;;;;32.26;61.17;100145.97;4991570;28;20050;-76
2023/08/28 17:02:36;;;;;;;31.70;29.90;;;;;;;32.14;62.62;100139.50;4990801;28;20046;-74
2023/08/28 17:05:03;;;;;;;29.35;27.65;;;;;;;32.03;63.03;100148.69;4991733;28;20468;-75
2023/08/28 17:07:30;;;;;;;32.30;30.40;;;;;;;31.94;64.69;100146.97;4990731;28;20046;-76
2023/08/28 17:09:57;;;;;;;33.35;31.45;;;;;;;31.85;65.51;100151.09;4990965;28;20539;-75
2023/08/28 17:12:24;;;;;;;34.75;32.95;;;;;;;31.78;65.95;100146.25;4990849;28;20582;-75
2023/08/28 17:14:52;;;;;;;32.15;30.45;;;;;;;31.75;65.74;100148.94;4990858;28;20057;-75
2023/08/28 17:17:19;;;;;;;35.67;34.08;;;;;;;31.55;67.29;100148.94;4990741;28;20054;-75
2023/08/28 17:19:46;;;;;;;34.72;33.13;;;;;;;31.48;67.78;100148.81;4991350;28;20181;-76
2023/08/28 17:22:13;;;;;;;34.28;32.67;;;;;;;31.33;68.57;100149.63;4990786;28;20495;-75
2023/08/28 17:24:40;;;;;;;36.13;34.42;;;;;;;31.27;68.73;100149.91;4990120;28;20045;-75
2023/08/28 17:27:07;;;;;;;31.70;30.20;;;;;;;31.18;68.21;100157.56;4991020;28;20511;-76
2023/08/28 17:29:34;;;;;;;36.72;35.00;;;;;;;31.17;68.79;100158.72;4990671;28;20516;-76
2023/08/28 17:32:02;;;;;;;34.40;32.80;;;;;;;31.14;69.17;100153.94;4987258;28;20046;-76
2023/08/28 17:34:29;;;;;;;35.92;34.22;;;;;;;31.04;69.78;100162.72;4990019;28;20054;-75
2023/08/28 17:36:56;;;;;;;36.08;34.47;;;;;;;31.08;69.00;100160.06;4990842;28;20054;-76
2023/08/28 17:39:25;;;;;;;37.20;35.50;;;;;;;30.94;70.22;100166.03;4990440;28;20112;-76
2023/08/28 17:41:53;;;;;;;40.10;38.38;;;;;;;30.83;70.63;100171.25;4990240;28;20511;-76
2023/08/28 17:44:20;;;;;;;39.58;37.78;;;;;;;30.80;70.43;100169.22;4989492;28;20053;-75
2023/08/28 17:46:47;;;;;;;40.08;38.17;;;;;;;30.70;71.72;100176.00;4990469;28;20050;-76
2023/08/28 17:49:15;;;;;;;36.70;35.00;;;;;;;30.45;73.50;100169.91;4990516;28;20488;-76
2023/08/28 17:51:42;;;;;;;32.63;30.83;;;;;;;30.43;72.99;100185.13;4989095;28;20058;-75
2023/08/28 17:54:09;;;;;;;33.67;31.77;;;;;;;30.35;73.45;100182.22;4990138;28;20487;-76
2023/08/28 17:56:43;;;;;;;32.58;30.77;;;;;;;30.28;73.39;100183.94;4989004;28;20055;-76
2023/08/28 17:59:10;;;;;;;28.80;27.20;;;;;;;30.17;75.00;100197.34;4989240;28;20120;-76
2023/08/28 18:01:36;;;;;;;27.40;25.90;;;;;;;30.10;74.89;100197.13;4988372;28;20644;-75
2023/08/28 18:04:04;;;;;;;29.25;27.65;;;;;;;30.02;75.46;100198.13;4984040;28;20065;-75
2023/08/28 18:06:32;;;;;;;33.10;31.40;;;;;;;29.95;76.23;100195.94;4988525;28;20089;-75
2023/08/28 18:09:00;;;;;;;34.53;32.72;;;;;;;29.84;77.65;100203.88;4990307;28;20077;-75
2023/08/28 18:11:28;;;;;;;34.92;33.03;;;;;;;29.76;77.92;100201.28;4989755;28;20440;-76
2023/08/28 18:13:55;;;;;;;31.55;29.75;;;;;;;29.58;80.52;100200.75;4990359;28;20405;-75
2023/08/28 18:16:22;;;;;;;30.92;29.05;;;;;;;29.58;81.10;100208.94;4989835;28;20046;-75
2023/08/28 18:18:51;;;;;;;34.10;32.33;;;;;;;29.61;80.30;100205.53;4989881;28;20534;-76
2023/08/28 18:21:19;;;;;;;31.02;29.42;;;;;;;29.61;80.01;100205.53;4989410;28;20527;-75
2023/08/28 18:23:50;;;;;;;35.15;33.25;;;;;;;29.64;79.94;100204.84;4983823;28;20043;-75
2023/08/28 18:26:18;;;;;;;41.33;39.33;;;;;;;29.57;81.27;100207.38;4989718;28;20058;-75
2023/08/28 18:28:45;;;;;;;32.05;30.35;;;;;;;29.60;81.04;100214.88;4989888;28;20074;-75
2023/08/28 18:31:12;;;;;;;32.92;31.33;;;;;;;29.54;81.95;100210.78;4989955;28;20086;-81
2023/08/28 18:33:39;;;;;;;34.05;32.42;;;;;;;29.54;82.53;100217.06;4990378;28;20547;-80
2023/08/28 18:36:07;;;;;;;33.00;31.35;;;;;;;29.39;84.79;100221.31;4992988;28;20059;-81
2023/08/28 18:38:34;;;;;;;42.10;39.90;;;;;;;29.42;84.69;100211.63;4994788;28;20137;-80
2023/08/28 18:41:02;;;;;;;37.15;35.45;;;;;;;29.40;84.36;100219.34;4994464;28;20401;-81
2023/08/28 18:43:29;;;;;;;38.03;36.13;;;;;;;29.26;87.30;100227.94;4993831;28;20042;-81
2023/08/28 18:45:56;;;;;;;32.92;31.25;;;;;;;29.25;87.54;100217.34;4990347;28;20186;-80
2023/08/28 18:48:23;;;;;;;38.00;35.92;;;;;;;29.20;88.37;100210.19;4991116;28;20054;-83
2023/08/28 18:50:50;;;;;;;36.17;34.08;;;;;;;29.20;90.02;100219.19;4994153;28;20051;-83
2023/08/28 18:53:20;;;;;;;34.22;32.17;;;;;;;29.26;89.82;100221.66;4995167;28;20518;-83
2023/08/28 18:55:53;;;;;;;33.17;31.27;;;;;;;29.26;90.95;100219.75;4995693;28;20047;-83
2023/08/28 18:58:22;;;;;;;31.75;29.90;;;;;;;29.21;91.50;100228.97;4995537;28;20140;-84
2023/08/28 19:00:49;;;;;;;31.67;29.77;;;;;;;29.13;92.55;100229.88;4995620;28;20046;-83
2023/08/28 19:03:16;;;;;;;29.85;28.05;;;;;;;29.13;92.87;100231.81;4981343;28;20054;-83
2023/08/28 19:05:44;;;;;;;29.90;28.10;;;;;;;28.99;93.92;100234.88;4994800;28;20046;-82
2023/08/28 19:08:20;;;;;;;29.52;27.63;;;;;;;29.04;94.34;100228.41;4994783;28;20096;-83
2023/08/28 19:10:54;;;;;;;29.67;27.88;;;;;;;28.98;95.55;100231.31;4993568;28;20064;-83
2023/08/28 19:13:22;;;;;;;30.58;28.67;;;;;;;28.97;97.07;100235.19;4994645;28;20550;-82
2023/08/28 19:15:49;;;;;;;32.08;30.17;;;;;;;28.87;98.18;100227.47;4997649;28;20046;-82
2023/08/28 19:18:16;;;;;;;29.38;27.58;;;;;;;28.86;99.15;100227.78;4994222;28;20046;-82
2023/08/28 19:20:44;;;;;;;34.00;31.90;;;;;;;28.77;100.00;100225.97;4990870;28;20057;-83
2023/08/28 19:23:11;;;;;;;36.88;34.78;;;;;;;28.82;100.00;100227.69;4994201;28;20053;-83
2023/08/28 19:25:38;;;;;;;36.25;34.25;;;;;;;28.83;100.00;100223.81;4994676;28;20052;-84
2023/08/28 19:28:06;;;;;;;34.78;32.70;;;;;;;28.76;100.00;100215.38;4993696;28;20058;-83
2023/08/28 19:30:36;;;;;;;34.00;31.90;;;;;;;28.69;100.00;100217.88;4995055;28;20499;-82
2023/08/28 19:33:07;;;;;;;36.13;34.13;;;;;;;28.60;100.00;100226.19;4994974;28;20061;-82
2023/08/28 19:35:34;;;;;;;34.75;32.65;;;;;;;28.64;100.00;100220.84;4993865;28;20431;-84
2023/08/28 19:38:01;;;;;;;37.30;35.20;;;;;;;28.62;100.00;100234.03;4987948;28;20658;-83
2023/08/28 19:40:28;;;;;;;37.30;35.20;;;;;;;28.56;100.00;100246.31;4986740;28;20086;-83
2023/08/28 19:43:03;;;;;;;47.47;44.88;;;;;;;28.61;100.00;100243.38;4994608;28;20060;-77
2023/08/28 19:45:30;;;;;;;45.20;42.60;;;;;;;28.59;100.00;100240.16;4990102;28;20058;-84
2023/08/28 19:47:59;;;;;;;38.80;36.60;;;;;;;28.54;100.00;100243.94;4992103;28;20046;-76
2023/08/28 19:50:35;;;;;;;40.15;37.75;;;;;;;28.43;100.00;100246.28;4993926;28;20076;-76
2023/08/28 19:53:03;;;;;;;40.35;38.15;;;;;;;28.38;100.00;100243.72;4992885;28;20048;-83
2023/08/28 19:55:30;;;;;;;39.47;37.17;;;;;;;28.36;100.00;100243.28;4993017;28;20499;-82
2023/08/28 19:57:57;;;;;;;37.22;34.92;;;;;;;28.32;100.00;100236.88;4990855;28;20053;-85
2023/08/28 20:00:25;;;;;;;40.13;37.83;;;;;;;28.20;100.00;100243.13;4992506;28;20546;-76
2023/08/28 20:02:52;;;;;;;33.63;31.63;;;;;;;28.10;100.00;100238.06;4991668;28;20128;-76
2023/08/28 20:05:20;;;;;;;40.50;38.20;;;;;;;27.89;100.00;100235.34;4992595;28;20507;-76
2023/08/28 20:07:48;;;;;;;41.03;38.63;;;;;;;27.82;100.00;100235.09;4987858;28;20057;-76
2023/08/28 20:10:15;;;;;;;41.13;38.72;;;;;;;27.64;100.00;100234.41;4991989;28;20046;-75
2023/08/28 20:12:42;;;;;;;42.28;39.67;;;;;;;27.61;100.00;100235.06;4991721;28;20455;-75
2023/08/28 20:15:09;;;;;;;38.97;36.67;;;;;;;27.37;100.00;100239.22;4991590;28;20487;-75
2023/08/28 20:17:36;;;;;;;45.15;42.55;;;;;;;27.26;100.00;100239.94;4989631;28;20105;-78
2023/08/28 20:20:10;;;;;;;45.92;43.42;;;;;;;27.15;100.00;100234.88;4990518;28;20047;-76
2023/08/28 20:22:38;;;;;;;39.88;37.58;;;;;;;27.15;100.00;100234.88;4984670;28;20046;-77
2023/08/28 20:25:08;;;;;;;42.92;40.53;;;;;;;27.12;100.00;100226.53;4982874;28;20083;-75
2023/08/28 20:27:35;;;;;;;41.53;39.03;;;;;;;27.12;100.00;100227.31;4985261;28;20053;-76
2023/08/28 20:30:03;;;;;;;41.63;39.22;;;;;;;27.05;100.00;100221.59;4981215;28;20149;-76
2023/08/28 20:32:30;;;;;;;39.28;36.88;;;;;;;27.11;100.00;100223.00;4979109;28;20055;-76